Boyce, LA (71409)

1:23 AM CDT on August 25, 2016 (GMT -0500)
Downs Lane | | Change Station
Active Advisory: Flood Warning

Elev 69 ft 31.28 °N, 92.57 °W | Updated 14 minutes ago

Clear
Clear
77.4 °F
Feels Like 79 °F
N
0.0
Wind Variable Wind from NNE

Today
High -- | Low -- °F
--% Chance of Precip.
Yesterday
High -- | Low -- °F
Precip. -- in
Pressure 30.08 in
Visibility 6.0 miles
Clouds Clear
Heat Index 79 °F
Dew Point 77 °F
Humidity 99%
Rainfall 0.00 in
Snow Depth Not available.
6:42 AM 7:42 PM
Waning Gibbous, 49% visible
METAR KAEX 250553Z 00000KT 6SM BR CLR 26/25 A3007 RMK AO2 SLP184 T02560250 10261 20256 403560233 56001
Pressure 30.08 in
Visibility 6.0 miles
Clouds Clear
Heat Index 79 °F
Dew Point 77 °F
Humidity 99%
Rainfall 0.00 in
Snow Depth Not available.
6:42 AM 7:42 PM
Waning Gibbous, 49% visible
METAR KAEX 250553Z 00000KT 6SM BR CLR 26/25 A3007 RMK AO2 SLP184 T02560250 10261 20256 403560233 56001

10-Day Weather Forecast

Almanac

Astronomy

Aug. 25, 2016 Rise Set
Actual Time
Civil Twilight
Nautical Twilight
Astronomical Twilight
Moon
Length of Visible Light
Length of Day
Tomorrow will be .
, % of the Moon is Illuminated

Today's Extremes

State Highs State Lows

Community

WunderPhotos

Upload Photos

1,934,803 photos uploaded!

WunderBlog® & News

Nearby

Air Quality

  Air Quality AQ Index Pollutant
Not available.

Snow Depth

Station Depth Elevation

Earthquake Activity

City Distance Mag. Time & Date
Minimum magnitude displayed is 2.5.

Coastal Water Temperatures

Place Temperature

Stations

Nearby Weather Stations

Station Location Temp. Windchill Dew Point Humidity Wind Precip. Elev Updated Type
                   

Watches & Warnings

Flood Warning
Issued: 8:43 PM CDT Aug. 24, 2016 – National Weather Service

The Flood Warning continues for
the Calcasieu River near Glenmora.
* Until late Saturday night... or until the warning is cancelled.
* At 7:45 PM Wednesday the stage was 13.4 feet.
* Minor flooding is occurring and minor flooding is forecast.
* Flood stage is 12.0 feet.
* The river is expected to continue a slow fall, dropping below
flood stage Saturday night.
* Impact... at stages near 12.0 feet... roads upstream from Glenmora,
including strothers crossing Road near the community of Calcasieu
and Price Crossing Road near Hineston have water on them and are
subject to being closed. Also, flooding of forested areas near the
river will occur.


Lat... Lon 3113 9279 3090 9269 3090 9262 3105 9265 3115 9275